createdAt,value
2019-02-22T00:01:47.174Z,27.60
2019-02-22T00:03:51.877Z,28.90
2019-02-22T00:05:56.360Z,29.27
2019-02-22T00:08:00.978Z,28.83
2019-02-22T00:10:07.373Z,29.43
2019-02-22T00:12:11.878Z,30.77
2019-02-22T00:14:16.473Z,28.97
2019-02-22T00:16:21.027Z,30.60
2019-02-22T00:18:25.543Z,29.33
2019-02-22T00:20:30.875Z,28.30
2019-02-22T00:22:35.549Z,29.97
2019-02-22T00:24:40.244Z,27.87
2019-02-22T00:26:45.067Z,27.50
2019-02-22T00:28:50.575Z,29.33
2019-02-22T00:30:55.020Z,31.17
2019-02-22T00:33:00.030Z,27.17
2019-02-22T00:35:04.656Z,28.70
2019-02-22T00:37:09.183Z,25.90
2019-02-22T00:39:13.745Z,24.40
2019-02-22T00:41:19.171Z,26.77
2019-02-22T00:43:24.004Z,28.47
2019-02-22T00:45:28.431Z,27.00
2019-02-22T00:47:33.125Z,28.70
2019-02-22T00:49:37.899Z,27.30
2019-02-22T00:51:42.294Z,26.27
2019-02-22T00:53:47.001Z,27.43
2019-02-22T00:55:51.751Z,26.57
2019-02-22T00:57:56.344Z,25.93
2019-02-22T01:00:00.849Z,27.33
2019-02-22T01:02:06.184Z,24.03
2019-02-22T01:04:10.661Z,27.00
2019-02-22T01:06:15.053Z,26.43
2019-02-22T01:08:19.396Z,28.00
2019-02-22T01:10:31.174Z,27.10
2019-02-22T01:12:30.670Z,28.40
2019-02-22T01:14:35.350Z,30.37
2019-02-22T01:16:41.569Z,25.20
2019-02-22T01:18:46.096Z,28.37
2019-02-22T01:20:54.347Z,29.50
2019-02-22T01:22:57.263Z,26.70
2019-02-22T01:25:01.672Z,27.60
2019-02-22T01:27:06.197Z,26.80
2019-02-22T01:29:11.960Z,27.37
2019-02-22T01:31:16.461Z,27.30
2019-02-22T01:33:21.880Z,28.07
2019-02-22T01:35:27.784Z,30.27
2019-02-22T01:37:32.731Z,28.17
2019-02-22T01:39:37.477Z,30.37
2019-02-22T01:41:41.970Z,27.50
2019-02-22T01:43:46.395Z,28.87
2019-02-22T01:45:50.902Z,27.10
2019-02-22T01:47:55.373Z,26.90
2019-02-22T01:49:59.901Z,27.87
2019-02-22T01:52:04.291Z,23.30
2019-02-22T01:54:08.634Z,23.40
2019-02-22T01:56:13.508Z,27.40
2019-02-22T01:58:20.908Z,26.30
2019-02-22T02:00:25.434Z,25.40
2019-02-22T02:02:30.808Z,28.47
2019-02-22T02:04:35.596Z,26.07
2019-02-22T02:06:39.946Z,25.97
2019-02-22T02:08:45.213Z,27.17
2019-02-22T02:10:54.222Z,30.10
2019-02-22T02:12:57.149Z,28.93
2019-02-22T02:15:02.927Z,26.77
2019-02-22T02:17:07.957Z,26.17
2019-02-22T02:19:12.866Z,27.67
2019-02-22T02:21:17.652Z,26.27
2019-02-22T02:23:22.114Z,28.60
2019-02-22T02:25:26.497Z,29.27
2019-02-22T02:27:30.932Z,29.03
2019-02-22T02:29:35.364Z,31.57
2019-02-22T02:31:39.784Z,31.30
2019-02-22T02:33:45.718Z,27.50
2019-02-22T02:35:50.481Z,31.13
2019-02-22T02:37:57.216Z,28.50
2019-02-22T02:40:01.691Z,30.00
2019-02-22T02:42:08.913Z,28.80
2019-02-22T02:44:13.345Z,29.57
2019-02-22T02:46:17.696Z,30.57
2019-02-22T02:48:25.093Z,31.00
2019-02-22T02:54:46.924Z,24.67
2019-02-22T02:56:52.057Z,23.97
2019-02-22T02:58:56.476Z,25.63
2019-02-22T03:01:00.887Z,27.83
2019-02-22T03:03:05.485Z,28.73
2019-02-22T03:05:12.099Z,28.50
2019-02-22T03:07:34.358Z,28.60
2019-02-22T03:09:40.856Z,25.60
2019-02-22T03:11:45.299Z,30.27
2019-02-22T03:13:49.689Z,31.77
2019-02-22T03:15:54.381Z,32.70
2019-02-22T03:17:59.004Z,27.87
2019-02-22T03:20:03.360Z,26.60
2019-02-22T03:22:09.989Z,26.27
2019-02-22T03:24:14.923Z,29.13
2019-02-22T03:26:19.336Z,27.67
2019-02-22T03:28:24.087Z,31.37
2019-02-22T03:30:28.686Z,27.47
2019-02-22T03:32:33.493Z,27.77
2019-02-22T03:34:37.917Z,30.33
2019-02-22T03:36:42.310Z,27.47
2019-02-22T03:38:47.024Z,27.43
2019-02-22T03:40:51.441Z,27.27
2019-02-22T03:42:58.187Z,30.00
2019-02-22T03:45:04.038Z,31.30
2019-02-22T03:47:08.530Z,27.00
2019-02-22T03:49:12.918Z,27.47
2019-02-22T03:51:18.252Z,26.77
2019-02-22T03:53:29.194Z,26.70
2019-02-22T03:55:33.937Z,30.73
2019-02-22T03:57:38.436Z,26.27
2019-02-22T03:59:42.928Z,26.67
2019-02-22T04:01:48.234Z,30.77
2019-02-22T04:03:52.592Z,25.90
2019-02-22T04:05:57.926Z,29.97
2019-02-22T04:08:02.466Z,29.57
2019-02-22T04:10:07.186Z,28.10
2019-02-22T04:12:11.609Z,25.83
2019-02-22T04:14:16.078Z,27.80
2019-02-22T04:16:37.274Z,26.27
2019-02-22T04:18:43.077Z,30.87
2019-02-22T04:20:47.596Z,29.07
2019-02-22T04:22:52.043Z,27.50
2019-02-22T04:24:56.570Z,28.93
2019-02-22T04:27:01.062Z,30.60
2019-02-22T04:29:05.537Z,30.40
2019-02-22T04:31:10.081Z,29.43
2019-02-22T04:33:17.936Z,31.17
2019-02-22T04:35:22.675Z,33.63
2019-02-22T04:37:27.384Z,29.67
2019-02-22T04:39:31.818Z,28.57
2019-02-22T04:41:36.259Z,35.30
2019-02-22T04:43:40.717Z,31.93
2019-02-22T04:45:45.151Z,32.33
2019-02-22T04:47:49.960Z,30.07
2019-02-22T04:49:54.478Z,30.97
2019-02-22T04:52:02.155Z,32.17
2019-02-22T04:54:06.913Z,33.87
2019-02-22T04:56:12.078Z,34.13
2019-02-22T04:58:19.259Z,35.10
2019-02-22T05:00:23.720Z,34.00
2019-02-22T05:02:28.068Z,31.20
2019-02-22T05:04:32.588Z,37.07
2019-02-22T05:06:37.860Z,34.60
2019-02-22T05:08:42.328Z,36.17
2019-02-22T05:10:46.717Z,33.50
2019-02-22T05:12:51.261Z,32.83
2019-02-22T05:14:56.077Z,33.47
2019-02-22T05:17:00.703Z,37.67
2019-02-22T05:19:05.935Z,37.50
2019-02-22T05:21:10.760Z,34.20
2019-02-22T05:23:15.159Z,36.97
2019-02-22T05:25:19.534Z,35.30
2019-02-22T05:27:24.134Z,40.20
2019-02-22T05:29:28.942Z,36.00
2019-02-22T05:31:33.382Z,35.80
2019-02-22T05:33:37.870Z,36.03
2019-02-22T05:35:42.416Z,34.77
2019-02-22T05:37:47.001Z,35.80
2019-02-22T05:39:51.629Z,33.87
2019-02-22T05:41:59.020Z,32.37
2019-02-22T05:44:03.508Z,33.57
2019-02-22T05:46:08.981Z,32.57
2019-02-22T05:48:13.422Z,34.50
2019-02-22T05:50:17.783Z,35.23
2019-02-22T05:52:22.286Z,39.87
2019-02-22T05:54:26.723Z,35.47
2019-02-22T05:56:31.111Z,35.43
2019-02-22T05:58:35.595Z,35.97
2019-02-22T06:00:40.882Z,33.73
2019-02-22T06:02:48.363Z,32.17
2019-02-22T06:04:53.031Z,33.20
2019-02-22T06:07:00.391Z,31.47
2019-02-22T06:09:09.264Z,32.03
2019-02-22T06:11:16.891Z,31.27
2019-02-22T06:13:21.427Z,31.97
2019-02-22T06:15:25.880Z,34.13
2019-02-22T06:17:30.711Z,33.80
2019-02-22T06:19:35.165Z,32.30
2019-02-22T06:21:39.684Z,32.70
2019-02-22T06:23:44.487Z,29.87
2019-02-22T06:25:49.063Z,32.40
2019-02-22T06:27:56.828Z,32.50
2019-02-22T06:30:01.191Z,30.17
2019-02-22T06:32:05.625Z,33.93
2019-02-22T06:34:12.354Z,31.67
2019-02-22T06:36:16.902Z,32.17
2019-02-22T06:38:21.752Z,32.60
2019-02-22T06:40:27.401Z,31.63
2019-02-22T06:42:31.834Z,30.10
2019-02-22T06:44:36.782Z,30.20
2019-02-22T06:46:41.394Z,31.00
2019-02-22T06:48:45.897Z,29.27
2019-02-22T06:50:50.700Z,32.27
2019-02-22T06:52:55.710Z,30.07
2019-02-22T06:55:00.230Z,29.47
2019-02-22T06:57:06.220Z,30.73
2019-02-22T06:59:11.295Z,32.73
2019-02-22T07:01:15.952Z,31.00
2019-02-22T07:03:22.721Z,31.10
2019-02-22T07:05:27.139Z,32.17
2019-02-22T07:07:32.235Z,36.60
2019-02-22T07:09:37.750Z,33.87
2019-02-22T07:11:50.041Z,30.90
2019-02-22T07:13:54.730Z,34.80
2019-02-22T07:16:02.414Z,32.10
2019-02-22T07:18:06.989Z,35.97
2019-02-22T07:20:12.004Z,33.20
2019-02-22T07:22:16.471Z,35.80
2019-02-22T07:24:21.398Z,34.10
2019-02-22T07:26:28.079Z,33.70
2019-02-22T07:28:32.619Z,35.90
2019-02-22T07:30:37.199Z,34.33
2019-02-22T07:32:41.883Z,34.17
2019-02-22T07:34:46.349Z,32.47
2019-02-22T07:36:52.335Z,38.17
2019-02-22T07:39:00.754Z,32.10
2019-02-22T07:41:05.809Z,33.97
2019-02-22T07:43:10.416Z,31.70
2019-02-22T07:45:17.702Z,34.87
2019-02-22T07:47:22.088Z,33.67
2019-02-22T07:49:29.661Z,32.17
2019-02-22T07:51:34.120Z,33.37
2019-02-22T07:53:39.019Z,34.20
2019-02-22T07:55:43.837Z,31.80
2019-02-22T07:57:48.472Z,32.97
2019-02-22T07:59:53.296Z,28.20
2019-02-22T08:01:57.730Z,30.97
2019-02-22T08:04:04.455Z,32.40
2019-02-22T08:06:10.958Z,33.97
2019-02-22T08:08:16.035Z,28.27
2019-02-22T08:10:26.287Z,30.80
2019-02-22T08:12:30.928Z,28.50
2019-02-22T08:14:35.337Z,33.10
2019-02-22T08:16:41.457Z,34.07
2019-02-22T08:18:46.290Z,31.70
2019-02-22T08:20:50.700Z,32.70
2019-02-22T08:22:55.316Z,33.37
2019-02-22T08:25:00.523Z,33.43
2019-02-22T08:27:04.985Z,32.57
2019-02-22T08:29:09.819Z,34.40
2019-02-22T08:31:14.584Z,32.13
2019-02-22T08:33:19.102Z,31.07
2019-02-22T08:35:23.940Z,35.67
2019-02-22T08:37:28.716Z,33.90
2019-02-22T08:39:34.950Z,31.00
2019-02-22T08:41:39.706Z,34.30
2019-02-22T08:43:44.253Z,32.40
2019-02-22T08:45:48.768Z,33.60
2019-02-22T08:47:55.020Z,31.30
2019-02-22T08:49:59.902Z,30.90
2019-02-22T08:52:04.469Z,32.93
2019-02-22T08:54:10.318Z,32.90
2019-02-22T08:56:16.616Z,34.07
2019-02-22T08:58:21.046Z,32.47
2019-02-22T09:00:25.413Z,33.53
2019-02-22T09:02:29.992Z,34.07
2019-02-22T09:04:37.496Z,34.10
2019-02-22T09:06:42.012Z,32.97
2019-02-22T09:08:46.499Z,31.10
2019-02-22T09:11:00.042Z,31.77
2019-02-22T09:12:58.070Z,31.20
2019-02-22T09:15:02.620Z,32.07
2019-02-22T09:17:07.378Z,32.17
2019-02-22T09:19:13.146Z,31.00
2019-02-22T09:21:23.241Z,30.83
2019-02-22T09:23:27.830Z,28.17
2019-02-22T09:25:32.283Z,28.67
2019-02-22T09:27:36.965Z,30.30
2019-02-22T09:29:41.865Z,27.73
2019-02-22T09:31:46.369Z,30.60
2019-02-22T09:33:50.932Z,30.67
2019-02-22T09:35:55.499Z,29.13
2019-02-22T09:38:01.230Z,29.77
2019-02-22T09:40:07.088Z,28.03
2019-02-22T09:42:12.266Z,25.50
2019-02-22T09:44:19.637Z,24.70
2019-02-22T09:46:24.681Z,24.67
2019-02-22T09:48:32.363Z,24.03
2019-02-22T09:50:36.927Z,24.77
2019-02-22T09:52:41.381Z,24.53
2019-02-22T09:54:45.797Z,22.13
2019-02-22T09:56:51.179Z,22.10
2019-02-22T09:58:55.669Z,22.30
2019-02-22T10:01:00.111Z,22.60
2019-02-22T10:03:05.899Z,20.50
2019-02-22T10:05:10.930Z,23.00
2019-02-22T10:07:15.951Z,20.87
2019-02-22T10:09:20.410Z,20.60
2019-02-22T10:11:25.839Z,21.47
2019-02-22T10:13:30.365Z,21.10
2019-02-22T10:15:35.034Z,19.73
2019-02-22T10:17:42.432Z,20.20
2019-02-22T10:19:47.017Z,19.77
2019-02-22T10:21:52.115Z,19.07
2019-02-22T10:23:56.611Z,19.03
2019-02-22T10:26:01.336Z,18.80
2019-02-22T10:28:17.017Z,19.40
2019-02-22T10:30:12.706Z,17.87
2019-02-22T10:32:17.818Z,15.90
2019-02-22T10:34:22.525Z,16.83
2019-02-22T10:36:27.446Z,17.07
2019-02-22T10:38:36.007Z,15.00
2019-02-22T10:40:40.536Z,17.00
2019-02-22T10:42:44.965Z,15.03
2019-02-22T10:44:49.384Z,16.67
2019-02-22T10:46:53.811Z,15.20
2019-02-22T10:48:58.238Z,15.07
2019-02-22T10:51:02.837Z,15.67
2019-02-22T10:53:07.500Z,15.47
2019-02-22T10:55:12.467Z,14.10
2019-02-22T10:57:17.528Z,14.00
2019-02-22T10:59:22.122Z,15.27
2019-02-22T11:01:26.844Z,13.53
2019-02-22T11:03:31.412Z,12.20
2019-02-22T11:05:35.954Z,11.77
2019-02-22T11:07:42.159Z,11.73
2019-02-22T11:09:49.201Z,11.07
2019-02-22T11:11:54.800Z,12.30
2019-02-22T11:14:00.410Z,10.27
2019-02-22T11:16:04.989Z,11.23
2019-02-22T11:18:10.934Z,10.53
2019-02-22T11:20:15.605Z,11.40
2019-02-22T11:22:22.037Z,10.10
2019-02-22T11:24:26.892Z,8.77
2019-02-22T11:26:32.078Z,8.50
2019-02-22T11:28:36.650Z,4.27
2019-02-22T11:30:42.036Z,4.77
2019-02-22T11:32:47.365Z,4.40
2019-02-22T11:34:52.235Z,2.97
2019-02-22T11:36:57.391Z,3.50
2019-02-22T11:39:02.604Z,3.73
2019-02-22T11:41:08.077Z,3.47
2019-02-22T11:43:13.340Z,3.50
2019-02-22T11:45:24.813Z,3.27
2019-02-22T11:47:29.649Z,3.67
2019-02-22T11:49:34.412Z,4.77
2019-02-22T11:51:38.962Z,4.87
2019-02-22T11:53:43.866Z,4.20
2019-02-22T11:55:48.814Z,3.60
2019-02-22T11:57:54.283Z,4.13
2019-02-22T11:59:59.028Z,4.20
2019-02-22T12:02:03.517Z,4.60
2019-02-22T12:04:08.165Z,4.80
2019-02-22T12:06:12.933Z,3.90
2019-02-22T12:08:19.085Z,4.10
2019-02-22T12:10:26.663Z,3.93
2019-02-22T12:12:32.211Z,4.87
2019-02-22T12:15:08.190Z,3.80
2019-02-22T12:17:13.467Z,4.03
2019-02-22T12:19:17.797Z,4.03
2019-02-22T12:21:23.177Z,3.70
2019-02-22T12:23:27.787Z,4.37
2019-02-22T12:25:32.377Z,4.10
2019-02-22T12:27:38.115Z,4.03
2019-02-22T12:29:43.066Z,3.80
2019-02-22T12:31:48.064Z,3.93
2019-02-22T12:33:53.687Z,3.37
2019-02-22T12:35:59.353Z,3.50
2019-02-22T12:38:07.245Z,3.70
2019-02-22T12:40:12.056Z,4.77
2019-02-22T12:42:17.251Z,4.87
2019-02-22T12:44:26.153Z,4.30
2019-02-22T12:46:31.513Z,4.53
2019-02-22T12:48:38.147Z,4.37
2019-02-22T12:50:45.989Z,4.77
2019-02-22T12:52:50.859Z,5.17
2019-02-22T12:54:55.525Z,4.87
2019-02-22T12:57:02.170Z,4.90
2019-02-22T12:59:09.252Z,4.83
2019-02-22T13:01:13.723Z,4.77
2019-02-22T13:03:18.998Z,4.40
2019-02-22T13:05:24.090Z,5.57
2019-02-22T13:07:32.489Z,4.90
2019-02-22T13:09:37.221Z,4.83
2019-02-22T13:11:41.701Z,5.40
2019-02-22T13:13:47.565Z,5.90
2019-02-22T13:15:52.404Z,6.10
2019-02-22T13:17:57.057Z,6.63
2019-02-22T13:20:02.135Z,6.03
2019-02-22T13:22:09.040Z,6.37
2019-02-22T13:24:13.196Z,5.30
2019-02-22T13:26:18.139Z,5.20
2019-02-22T13:28:22.529Z,5.40
2019-02-22T13:30:27.150Z,4.73
2019-02-22T13:32:31.918Z,5.33
2019-02-22T13:34:36.678Z,5.00
2019-02-22T13:36:42.489Z,5.30
2019-02-22T13:38:48.798Z,4.80
2019-02-22T13:40:54.883Z,4.80
2019-02-22T13:43:00.128Z,5.20
2019-02-22T13:45:05.085Z,5.50
2019-02-22T13:47:09.609Z,5.50
2019-02-22T13:49:17.769Z,5.50
2019-02-22T13:51:22.495Z,5.50
2019-02-22T13:53:26.847Z,4.87
2019-02-22T13:55:31.249Z,5.80
2019-02-22T13:57:35.991Z,5.10
2019-02-22T13:59:40.823Z,5.23
2019-02-22T14:01:46.039Z,4.87
2019-02-22T14:03:50.863Z,4.23
2019-02-22T14:05:55.361Z,5.43
2019-02-22T14:07:59.810Z,4.77
2019-02-22T14:10:04.533Z,5.93
2019-02-22T14:12:09.050Z,5.37
2019-02-22T14:14:17.773Z,5.00
2019-02-22T14:16:22.854Z,5.70
2019-02-22T14:18:27.227Z,5.27
2019-02-22T14:28:09.111Z,6.70
2019-02-22T14:31:14.857Z,7.10
2019-02-22T14:43:35.293Z,7.03
2019-02-22T14:46:03.213Z,7.70
2019-02-22T14:48:20.698Z,7.30
2019-02-22T14:53:31.178Z,7.33
2019-02-22T14:55:35.593Z,7.80
2019-02-22T14:57:40.072Z,7.50
2019-02-22T14:59:44.467Z,7.60
2019-02-22T15:01:48.896Z,7.70
2019-02-22T15:03:57.227Z,5.87
2019-02-22T15:06:02.594Z,8.13
2019-02-22T15:08:08.482Z,7.27
2019-02-22T15:10:13.515Z,7.97
2019-02-22T15:12:18.567Z,6.40
2019-02-22T15:14:24.495Z,6.67
2019-02-22T15:16:46.841Z,7.23
2019-02-22T15:18:53.487Z,6.80
2019-02-22T15:20:58.131Z,7.30
2019-02-22T15:23:04.544Z,7.03
2019-02-22T15:25:12.511Z,6.90
2019-02-22T15:27:19.124Z,6.50
2019-02-22T15:29:24.164Z,6.40
2019-02-22T15:31:36.079Z,5.40
2019-02-22T15:33:35.719Z,6.43
2019-02-22T15:35:42.518Z,6.30
2019-02-22T15:37:47.284Z,6.20
2019-02-22T15:39:51.894Z,6.07
2019-02-22T15:41:56.433Z,6.10
2019-02-22T15:44:01.394Z,5.43
2019-02-22T15:46:12.283Z,5.37
2019-02-22T15:48:14.633Z,5.67
2019-02-22T15:50:19.430Z,6.33
2019-02-22T15:52:24.210Z,5.50
2019-02-22T15:54:29.187Z,4.73
2019-02-22T15:56:33.623Z,5.60
2019-02-22T15:58:39.116Z,5.70
2019-02-22T16:00:43.547Z,5.27
2019-02-22T16:02:48.236Z,6.03
2019-02-22T16:05:06.245Z,5.83
2019-02-22T16:07:10.656Z,5.70
2019-02-22T16:09:15.270Z,5.30
2019-02-22T16:11:21.158Z,5.60
2019-02-22T16:13:26.098Z,5.20
2019-02-22T16:15:36.131Z,5.67
2019-02-22T16:17:44.020Z,5.20
2019-02-22T16:19:51.546Z,4.97
2019-02-22T16:21:57.611Z,5.33
2019-02-22T16:24:02.257Z,5.00
2019-02-22T16:26:06.921Z,5.53
2019-02-22T16:28:15.639Z,5.70
2019-02-22T16:30:21.091Z,5.73
2019-02-22T16:32:28.487Z,5.80
2019-02-22T16:34:43.186Z,7.37
2019-02-22T16:36:39.994Z,6.40
2019-02-22T16:38:44.535Z,6.00
2019-02-22T16:40:52.522Z,5.07
2019-02-22T16:42:56.921Z,6.30
2019-02-22T16:45:01.317Z,6.70
2019-02-22T16:47:06.519Z,6.73
2019-02-22T16:49:11.812Z,6.90
2019-02-22T16:51:16.520Z,6.13
2019-02-22T16:53:20.979Z,6.17
2019-02-22T16:55:25.486Z,7.10
2019-02-22T16:57:29.971Z,6.23
2019-02-22T16:59:34.664Z,6.80
2019-02-22T17:01:39.481Z,6.57
2019-02-22T17:03:44.349Z,5.73
2019-02-22T17:05:49.056Z,7.10
2019-02-22T17:07:55.245Z,6.90
2019-02-22T17:10:01.097Z,7.80
2019-02-22T17:12:06.885Z,6.87
2019-02-22T17:14:12.674Z,8.50
2019-02-22T17:16:18.750Z,7.70
2019-02-22T17:18:23.797Z,9.37
2019-02-22T17:20:28.704Z,8.20
2019-02-22T17:22:33.533Z,8.37
2019-02-22T17:24:42.107Z,9.07
2019-02-22T17:26:51.970Z,7.27
2019-02-22T17:28:57.245Z,7.47
2019-02-22T17:31:02.596Z,7.93
2019-02-22T17:33:09.056Z,7.40
2019-02-22T17:35:13.536Z,7.70
2019-02-22T17:37:18.486Z,7.77
2019-02-22T17:39:24.090Z,8.00
2019-02-22T17:41:28.968Z,8.50
2019-02-22T17:43:34.545Z,9.23
2019-02-22T17:45:41.904Z,7.00
2019-02-22T17:47:49.495Z,6.87
2019-02-22T17:50:46.068Z,8.20
2019-02-22T17:52:53.194Z,8.20
2019-02-22T17:54:57.617Z,8.40
2019-02-22T17:57:02.913Z,9.23
2019-02-22T17:59:07.457Z,8.63
2019-02-22T18:01:12.252Z,8.47
2019-02-22T18:03:16.769Z,7.97
2019-02-22T18:05:21.291Z,8.57
2019-02-22T18:07:26.501Z,9.07
2019-02-22T18:09:31.844Z,7.80
2019-02-22T18:11:37.126Z,8.30
2019-02-22T18:13:41.892Z,6.93
2019-02-22T18:15:47.471Z,8.13
2019-02-22T18:17:54.121Z,7.23
2019-02-22T18:20:12.520Z,8.00
2019-02-22T18:22:25.759Z,7.90
2019-02-22T18:24:35.292Z,7.40
2019-02-22T18:26:41.316Z,7.63
2019-02-22T18:28:46.400Z,7.07
2019-02-22T18:33:23.508Z,7.77
2019-02-22T18:35:29.400Z,7.03
2019-02-22T18:37:37.054Z,8.93
2019-02-22T18:39:52.452Z,8.23
2019-02-22T18:42:00.718Z,8.60
2019-02-22T18:44:10.203Z,8.40
2019-02-22T18:46:15.168Z,7.53
2019-02-22T18:48:20.684Z,8.97
2019-02-22T18:50:26.125Z,8.50
2019-02-22T18:52:30.582Z,7.83
2019-02-22T18:54:40.722Z,10.27
2019-02-22T18:56:46.398Z,8.03
2019-02-22T18:58:51.703Z,8.20
2019-02-22T19:00:57.346Z,9.63
2019-02-22T19:03:01.942Z,8.40
2019-02-22T19:05:06.977Z,9.10
2019-02-22T19:07:11.790Z,8.27
2019-02-22T19:09:16.118Z,8.77
2019-02-22T19:11:23.137Z,9.83
2019-02-22T19:13:27.728Z,8.27
2019-02-22T19:15:32.357Z,8.77
2019-02-22T19:17:36.865Z,8.43
2019-02-22T19:19:43.736Z,9.23
2019-02-22T19:22:01.280Z,7.47
2019-02-22T19:24:06.972Z,8.90
2019-02-22T19:26:12.235Z,9.50
2019-02-22T19:28:16.754Z,9.67
2019-02-22T19:30:22.425Z,9.80
2019-02-22T19:32:27.653Z,10.53
2019-02-22T19:34:32.453Z,10.43
2019-02-22T19:36:39.051Z,10.00
2019-02-22T19:39:03.963Z,11.83
2019-02-22T19:41:44.476Z,11.43
2019-02-22T19:43:51.681Z,11.50
2019-02-22T19:45:57.478Z,11.17
2019-02-22T19:48:05.114Z,14.00
2019-02-22T19:50:11.661Z,11.10
2019-02-22T19:52:19.840Z,11.97
2019-02-22T19:54:24.468Z,12.27
2019-02-22T19:56:28.987Z,12.43
2019-02-22T19:58:37.889Z,12.97
2019-02-22T20:00:49.867Z,11.13
2019-02-22T20:02:56.758Z,14.10
2019-02-22T20:05:06.006Z,12.57
2019-02-22T20:07:12.968Z,12.97
2019-02-22T20:09:18.186Z,13.80
2019-02-22T20:11:23.370Z,14.83
2019-02-22T20:13:31.314Z,13.67
2019-02-22T20:15:37.762Z,14.70
2019-02-22T20:17:53.354Z,13.63
2019-02-22T20:19:53.333Z,13.67
2019-02-22T20:22:00.037Z,12.93
2019-02-22T20:24:06.980Z,11.93
2019-02-22T20:26:11.605Z,13.03
2019-02-22T20:28:16.698Z,13.17
2019-02-22T20:30:22.553Z,13.47
2019-02-22T20:32:27.129Z,15.63
2019-02-22T20:34:33.106Z,12.87
2019-02-22T20:36:38.129Z,15.63
2019-02-22T20:38:43.274Z,15.10
2019-02-22T20:40:50.521Z,13.30
2019-02-22T20:42:55.464Z,15.40
2019-02-22T20:45:00.330Z,15.13
2019-02-22T20:48:07.898Z,14.70
2019-02-22T20:50:13.937Z,13.87
2019-02-22T20:52:18.625Z,14.80
2019-02-22T20:54:34.591Z,15.30
2019-02-22T20:56:39.731Z,15.30
2019-02-22T20:58:45.577Z,14.77
2019-02-22T21:00:50.886Z,14.83
2019-02-22T21:02:56.935Z,15.70
2019-02-22T21:05:04.264Z,16.23
2019-02-22T21:07:09.805Z,16.33
2019-02-22T21:09:18.266Z,15.80
2019-02-22T21:11:25.449Z,17.13
2019-02-22T21:13:31.822Z,17.30
2019-02-22T21:15:40.757Z,17.60
2019-02-22T21:17:48.529Z,16.77
2019-02-22T21:20:09.287Z,15.80
2019-02-22T21:22:35.193Z,14.77
2019-02-22T21:24:59.197Z,17.00
2019-02-22T21:27:06.714Z,17.17
2019-02-22T21:29:20.267Z,17.10
2019-02-22T21:31:32.286Z,17.00
2019-02-22T21:33:36.983Z,16.17
2019-02-22T21:35:42.215Z,14.80
2019-02-22T21:37:46.727Z,15.67
2019-02-22T21:39:51.249Z,15.43
2019-02-22T21:41:59.600Z,15.93
2019-02-22T21:44:04.889Z,15.70
2019-02-22T21:46:12.150Z,16.37
2019-02-22T21:48:26.946Z,17.67
2019-02-22T21:50:23.609Z,16.40
2019-02-22T21:52:28.219Z,15.47
2019-02-22T21:54:32.894Z,14.80
2019-02-22T21:56:38.132Z,15.13
2019-02-22T21:58:42.746Z,14.80
2019-02-22T22:00:47.420Z,16.10
2019-02-22T22:02:53.662Z,16.13
2019-02-22T22:04:59.060Z,15.33
2019-02-22T22:07:03.943Z,16.30
2019-02-22T22:09:10.088Z,15.30
2019-02-22T22:11:14.947Z,15.67
2019-02-22T22:13:20.231Z,15.70
2019-02-22T22:15:25.049Z,16.37
2019-02-22T22:17:29.523Z,16.70
2019-02-22T22:19:57.473Z,15.37
2019-02-22T22:22:02.242Z,15.10
2019-02-22T22:24:07.108Z,16.00
2019-02-22T22:26:12.568Z,15.83
2019-02-22T22:28:17.115Z,14.90
2019-02-22T22:30:21.762Z,15.87
2019-02-22T22:32:26.304Z,15.53
2019-02-22T22:34:30.802Z,15.50
2019-02-22T22:36:35.337Z,15.20
2019-02-22T22:38:40.290Z,15.77
2019-02-22T22:40:44.811Z,17.40
2019-02-22T22:42:49.392Z,14.93
2019-02-22T22:44:53.955Z,15.07
2019-02-22T22:46:58.475Z,16.87
2019-02-22T22:49:03.000Z,16.43
2019-02-22T22:51:07.571Z,15.50
2019-02-22T22:53:12.064Z,14.57
2019-02-22T22:55:16.430Z,14.37
2019-02-22T22:57:28.432Z,14.10
2019-02-22T22:59:36.752Z,14.17
2019-02-22T23:01:43.885Z,14.37
2019-02-22T23:03:48.688Z,16.30
2019-02-22T23:05:53.504Z,13.90
2019-02-22T23:07:57.898Z,14.53
2019-02-22T23:10:02.649Z,14.97
2019-02-22T23:12:08.980Z,14.43
2019-02-22T23:14:13.841Z,14.33
2019-02-22T23:16:22.115Z,14.87
2019-02-22T23:18:27.809Z,15.27
2019-02-22T23:20:32.660Z,13.73
2019-02-22T23:22:41.699Z,13.73
2019-02-22T23:24:51.322Z,15.27
2019-02-22T23:27:34.096Z,13.93
2019-02-22T23:29:44.267Z,12.17
2019-02-22T23:31:59.790Z,12.80
2019-02-22T23:34:26.475Z,14.20
2019-02-22T23:36:31.452Z,12.70
2019-02-22T23:38:39.494Z,12.40
2019-02-22T23:40:46.666Z,13.00
2019-02-22T23:42:52.069Z,12.27
2019-02-22T23:44:57.334Z,13.27
2019-02-22T23:47:04.963Z,11.77
2019-02-22T23:49:13.345Z,11.47
2019-02-22T23:51:18.151Z,12.90
2019-02-22T23:53:22.786Z,13.00
2019-02-22T23:55:29.362Z,11.60
2019-02-22T23:57:36.858Z,10.83
2019-02-22T23:59:41.352Z,12.20
